TTW220 RCKH-RCSS
Flight info
| Callsign | TTW220 |
|---|---|
| Flight time | N/A |
| Altitude | 21000 |
| Route | TNN2G TNN W4 HLG HLG1E |
| Aircraft | A20N/M-SDE2E3FGHIRWXY/LB1 |
Departure
| Time | 2026-04-20 14:18 |
|---|---|
| Airport | Kaohsiung International Airport (RCKH) |
Arrival
| Time | N/A |
|---|---|
| Airport | Taipei Songshan International Airport (RCSS) |
| Time | Latitude | Longitude | Altitude | Speed | Heading |
|---|---|---|---|---|---|
| 2026-04-20 14:06 | 22.57332 | 120.33863 | 40 ft | 0 kts | 91° |
| 2026-04-20 14:12 | 22.57333 | 120.33840 | 39 ft | 4 kts | 90° |
| 2026-04-20 14:12 | 22.57333 | 120.33810 | 37 ft | 4 kts | 91° |
| 2026-04-20 14:12 | 22.57332 | 120.33788 | 37 ft | 2 kts | 71° |
| 2026-04-20 14:12 | 22.57326 | 120.33778 | 37 ft | 2 kts | 31° |
| 2026-04-20 14:13 | 22.57316 | 120.33773 | 37 ft | 2 kts | 11° |
| 2026-04-20 14:13 | 22.57305 | 120.33771 | 37 ft | 2 kts | 5° |
| 2026-04-20 14:13 | 22.57296 | 120.33771 | 40 ft | 0 kts | 2° |
| 2026-04-20 14:16 | 22.57308 | 120.33771 | 36 ft | 8 kts | 2° |
| 2026-04-20 14:16 | 22.57409 | 120.33731 | 41 ft | 20 kts | 294° |
| 2026-04-20 14:16 | 22.57493 | 120.33627 | 41 ft | 19 kts | 316° |
| 2026-04-20 14:16 | 22.57584 | 120.33527 | 41 ft | 19 kts | 313° |
| 2026-04-20 14:17 | 22.57703 | 120.33506 | 41 ft | 18 kts | 13° |
| 2026-04-20 14:17 | 22.57751 | 120.33611 | 41 ft | 17 kts | 92° |
| 2026-04-20 14:17 | 22.57743 | 120.33847 | 42 ft | 57 kts | 92° |
| 2026-04-20 14:17 | 22.57722 | 120.34522 | 42 ft | 121 kts | 92° |
| 2026-04-20 14:18 | 22.57690 | 120.35620 | 115 ft | 161 kts | 91° |
| 2026-04-20 14:18 | 22.57674 | 120.36806 | 708 ft | 159 kts | 90° |
| 2026-04-20 14:18 | 22.57567 | 120.37985 | 1282 ft | 157 kts | 110° |
| 2026-04-20 14:18 | 22.56771 | 120.38744 | 1781 ft | 165 kts | 163° |
| 2026-04-20 14:19 | 22.55543 | 120.38621 | 2005 ft | 200 kts | 199° |
| 2026-04-20 14:19 | 22.54191 | 120.37961 | 2502 ft | 221 kts | 205° |
| 2026-04-20 14:19 | 22.52821 | 120.37214 | 3347 ft | 225 kts | 204° |
| 2026-04-20 14:19 | 22.51403 | 120.36463 | 4245 ft | 226 kts | 204° |
| 2026-04-20 14:20 | 22.49979 | 120.35733 | 5169 ft | 226 kts | 204° |
| 2026-04-20 14:20 | 22.48544 | 120.35016 | 6030 ft | 229 kts | 203° |
| 2026-04-20 14:20 | 22.47088 | 120.34297 | 6854 ft | 231 kts | 204° |
| 2026-04-20 14:20 | 22.45763 | 120.33311 | 7616 ft | 236 kts | 231° |
| 2026-04-20 14:21 | 22.45190 | 120.31665 | 8377 ft | 241 kts | 269° |
| 2026-04-20 14:21 | 22.45626 | 120.29919 | 9176 ft | 245 kts | 296° |
| 2026-04-20 14:21 | 22.46469 | 120.28310 | 10004 ft | 247 kts | 300° |
| 2026-04-20 14:21 | 22.47340 | 120.26701 | 10785 ft | 248 kts | 298° |
| 2026-04-20 14:22 | 22.48182 | 120.25067 | 11578 ft | 249 kts | 297° |
| 2026-04-20 14:22 | 22.49000 | 120.23407 | 12361 ft | 250 kts | 296° |
| 2026-04-20 14:22 | 22.49801 | 120.21733 | 13144 ft | 252 kts | 295° |
| 2026-04-20 14:22 | 22.50650 | 120.20097 | 13881 ft | 254 kts | 302° |
| 2026-04-20 14:23 | 22.51774 | 120.18603 | 14509 ft | 259 kts | 314° |
| 2026-04-20 14:23 | 22.53224 | 120.17403 | 15121 ft | 266 kts | 327° |
| 2026-04-20 14:23 | 22.54950 | 120.16609 | 15723 ft | 274 kts | 342° |
| 2026-04-20 14:23 | 22.56856 | 120.16307 | 16331 ft | 281 kts | 356° |
| 2026-04-20 14:24 | 22.58832 | 120.16378 | 16949 ft | 286 kts | 1° |
| 2026-04-20 14:24 | 22.60836 | 120.16544 | 17546 ft | 291 kts | 2° |
| 2026-04-20 14:24 | 22.62873 | 120.16720 | 18159 ft | 295 kts | 2° |
| 2026-04-20 14:24 | 22.64931 | 120.16891 | 18700 ft | 298 kts | 1° |
| 2026-04-20 14:25 | 22.67015 | 120.17059 | 19249 ft | 301 kts | 1° |
| 2026-04-20 14:25 | 22.69112 | 120.17224 | 19811 ft | 303 kts | 1° |
| 2026-04-20 14:25 | 22.71222 | 120.17387 | 20365 ft | 306 kts | 0° |
| 2026-04-20 14:25 | 22.73360 | 120.17551 | 20841 ft | 309 kts | 0° |
| 2026-04-20 14:26 | 22.75525 | 120.17715 | 21013 ft | 319 kts | 0° |
| 2026-04-20 14:26 | 22.77826 | 120.17886 | 21030 ft | 343 kts | 0° |
| 2026-04-20 14:26 | 22.80284 | 120.18069 | 21028 ft | 366 kts | 1° |
| 2026-04-20 14:26 | 22.82861 | 120.18264 | 21029 ft | 387 kts | 1° |
| 2026-04-20 14:27 | 22.85615 | 120.18473 | 21030 ft | 406 kts | 1° |
| 2026-04-20 14:27 | 22.88490 | 120.18694 | 21031 ft | 422 kts | 1° |
| 2026-04-20 14:27 | 22.91474 | 120.18923 | 21032 ft | 437 kts | 1° |
| 2026-04-20 14:27 | 22.94539 | 120.19158 | 21035 ft | 445 kts | 1° |
| 2026-04-20 14:28 | 22.96629 | 120.19319 | 21034 ft | 447 kts | 1° |
| 2026-04-20 14:28 | 23.00746 | 120.19637 | 21035 ft | 447 kts | 1° |
| 2026-04-20 14:28 | 23.03862 | 120.19877 | 21036 ft | 447 kts | 1° |
| 2026-04-20 14:28 | 23.05921 | 120.20035 | 21035 ft | 447 kts | 1° |
| 2026-04-20 14:29 | 23.09019 | 120.20273 | 21032 ft | 447 kts | 1° |
| 2026-04-20 14:29 | 23.12120 | 120.20538 | 21031 ft | 448 kts | 4° |
| 2026-04-20 14:29 | 23.15188 | 120.21178 | 21031 ft | 450 kts | 12° |
| 2026-04-20 14:29 | 23.18208 | 120.22101 | 21029 ft | 451 kts | 15° |
| 2026-04-20 14:30 | 23.21196 | 120.23168 | 21027 ft | 451 kts | 17° |
| 2026-04-20 14:30 | 23.24172 | 120.24299 | 21025 ft | 452 kts | 17° |
| 2026-04-20 14:30 | 23.27134 | 120.25438 | 21023 ft | 452 kts | 17° |
| 2026-04-20 14:30 | 23.30064 | 120.26554 | 21020 ft | 451 kts | 17° |
| 2026-04-20 14:31 | 23.33033 | 120.27668 | 21021 ft | 451 kts | 17° |
| 2026-04-20 14:31 | 23.36014 | 120.28769 | 21022 ft | 451 kts | 17° |
| 2026-04-20 14:31 | 23.38989 | 120.29858 | 21019 ft | 451 kts | 16° |
| 2026-04-20 14:31 | 23.41962 | 120.30940 | 21022 ft | 451 kts | 16° |
| 2026-04-20 14:32 | 23.44949 | 120.32025 | 21025 ft | 451 kts | 16° |
| 2026-04-20 14:32 | 23.47922 | 120.33104 | 21022 ft | 451 kts | 16° |
| 2026-04-20 14:32 | 23.50902 | 120.34187 | 21023 ft | 451 kts | 16° |
| 2026-04-20 14:32 | 23.53884 | 120.35272 | 21021 ft | 451 kts | 16° |
| 2026-04-20 14:33 | 23.56865 | 120.36358 | 21022 ft | 451 kts | 16° |
| 2026-04-20 14:33 | 23.59841 | 120.37443 | 21021 ft | 451 kts | 16° |
| 2026-04-20 14:33 | 23.62820 | 120.38527 | 21021 ft | 451 kts | 16° |
| 2026-04-20 14:33 | 23.65757 | 120.39595 | 21022 ft | 451 kts | 16° |
| 2026-04-20 14:34 | 23.68736 | 120.40678 | 21022 ft | 451 kts | 16° |
| 2026-04-20 14:34 | 23.71714 | 120.41761 | 21020 ft | 451 kts | 16° |
| 2026-04-20 14:34 | 23.74694 | 120.42845 | 21021 ft | 451 kts | 16° |
| 2026-04-20 14:34 | 23.77675 | 120.43931 | 21022 ft | 451 kts | 16° |
| 2026-04-20 14:35 | 23.80655 | 120.45016 | 21021 ft | 451 kts | 16° |
| 2026-04-20 14:35 | 23.83631 | 120.46101 | 21020 ft | 451 kts | 16° |
| 2026-04-20 14:35 | 23.86608 | 120.47188 | 21022 ft | 451 kts | 16° |
| 2026-04-20 14:35 | 23.89584 | 120.48274 | 21016 ft | 451 kts | 16° |
| 2026-04-20 14:36 | 23.92560 | 120.49363 | 21017 ft | 451 kts | 16° |
| 2026-04-20 14:36 | 23.95534 | 120.50454 | 21022 ft | 451 kts | 16° |
| 2026-04-20 14:36 | 23.98508 | 120.51548 | 21029 ft | 451 kts | 16° |
| 2026-04-20 14:36 | 24.01481 | 120.52643 | 21034 ft | 451 kts | 16° |
| 2026-04-20 14:37 | 24.04457 | 120.53739 | 21039 ft | 451 kts | 16° |
| 2026-04-20 14:37 | 24.07439 | 120.54828 | 21041 ft | 451 kts | 16° |
| 2026-04-20 14:37 | 24.10411 | 120.55915 | 21041 ft | 451 kts | 16° |
| 2026-04-20 14:37 | 24.13354 | 120.56995 | 21045 ft | 451 kts | 16° |
| 2026-04-20 14:38 | 24.16331 | 120.58089 | 21045 ft | 451 kts | 16° |
| 2026-04-20 14:38 | 24.19299 | 120.59181 | 21046 ft | 451 kts | 16° |
| 2026-04-20 14:38 | 24.22270 | 120.60274 | 21046 ft | 450 kts | 16° |
| 2026-04-20 14:38 | 24.25235 | 120.61366 | 21046 ft | 450 kts | 16° |
| 2026-04-20 14:39 | 24.28203 | 120.62458 | 21045 ft | 450 kts | 16° |
| 2026-04-20 14:39 | 24.31167 | 120.63550 | 21046 ft | 450 kts | 16° |
| 2026-04-20 14:39 | 24.34139 | 120.64645 | 21047 ft | 450 kts | 16° |
| 2026-04-20 14:39 | 24.37114 | 120.65742 | 21044 ft | 450 kts | 16° |
| 2026-04-20 14:40 | 24.40045 | 120.66823 | 21043 ft | 450 kts | 16° |
| 2026-04-20 14:40 | 24.43015 | 120.67920 | 21043 ft | 450 kts | 16° |
| 2026-04-20 14:40 | 24.45991 | 120.69019 | 21042 ft | 451 kts | 17° |
| 2026-04-20 14:40 | 24.48989 | 120.70126 | 20679 ft | 455 kts | 17° |
| 2026-04-20 14:41 | 24.52001 | 120.71239 | 19723 ft | 459 kts | 17° |
| 2026-04-20 14:41 | 24.54979 | 120.72526 | 18798 ft | 463 kts | 27° |
| 2026-04-20 14:41 | 24.57582 | 120.74586 | 17952 ft | 461 kts | 43° |
| 2026-04-20 14:41 | 24.59784 | 120.77087 | 16899 ft | 451 kts | 48° |
| 2026-04-20 14:42 | 24.61853 | 120.79626 | 15760 ft | 442 kts | 49° |
| 2026-04-20 14:42 | 24.63883 | 120.82130 | 14680 ft | 434 kts | 48° |
| 2026-04-20 14:42 | 24.65868 | 120.84563 | 13784 ft | 422 kts | 48° |
| 2026-04-20 14:42 | 24.67811 | 120.86932 | 12895 ft | 412 kts | 48° |
| 2026-04-20 14:43 | 24.69729 | 120.89261 | 12102 ft | 409 kts | 47° |
| 2026-04-20 14:43 | 24.71631 | 120.91566 | 11324 ft | 406 kts | 47° |
| 2026-04-20 14:43 | 24.73523 | 120.93858 | 10564 ft | 402 kts | 47° |
| 2026-04-20 14:43 | 24.75327 | 120.96041 | 10297 ft | 376 kts | 47° |
| 2026-04-20 14:44 | 24.77034 | 120.98109 | 10196 ft | 346 kts | 47° |
| 2026-04-20 14:44 | 24.78366 | 120.99723 | 10114 ft | 324 kts | 47° |
| 2026-04-20 14:44 | 24.79828 | 121.01494 | 10001 ft | 302 kts | 46° |
| 2026-04-20 14:44 | 24.81191 | 121.03146 | 9683 ft | 292 kts | 46° |
| 2026-04-20 14:45 | 24.82551 | 121.04792 | 9213 ft | 289 kts | 46° |
| 2026-04-20 14:45 | 24.83909 | 121.06434 | 8791 ft | 290 kts | 47° |
| 2026-04-20 14:45 | 24.85272 | 121.08086 | 8349 ft | 292 kts | 47° |
| 2026-04-20 14:45 | 24.86647 | 121.09751 | 7917 ft | 294 kts | 47° |
| 2026-04-20 14:46 | 24.88022 | 121.11419 | 7486 ft | 294 kts | 47° |
| 2026-04-20 14:46 | 24.89396 | 121.13086 | 7054 ft | 293 kts | 47° |
| 2026-04-20 14:46 | 24.90766 | 121.14750 | 6615 ft | 292 kts | 47° |
| 2026-04-20 14:46 | 24.92130 | 121.16406 | 6175 ft | 291 kts | 47° |
| 2026-04-20 14:47 | 24.93491 | 121.18059 | 5736 ft | 289 kts | 47° |
| 2026-04-20 14:47 | 24.94837 | 121.19690 | 5309 ft | 287 kts | 47° |
| 2026-04-20 14:47 | 24.96183 | 121.21281 | 5070 ft | 277 kts | 47° |
| 2026-04-20 14:48 | 24.98708 | 121.24228 | 4815 ft | 252 kts | 47° |
| 2026-04-20 14:48 | 24.99871 | 121.25583 | 4712 ft | 240 kts | 47° |
| 2026-04-20 14:48 | 25.00992 | 121.26891 | 4583 ft | 229 kts | 47° |
| 2026-04-20 14:48 | 25.02052 | 121.28128 | 4532 ft | 213 kts | 47° |
| 2026-04-20 14:49 | 25.03033 | 121.29272 | 4438 ft | 199 kts | 47° |
| 2026-04-20 14:49 | 25.03953 | 121.30346 | 4319 ft | 186 kts | 48° |
| 2026-04-20 14:49 | 25.04807 | 121.31343 | 4177 ft | 172 kts | 48° |
| 2026-04-20 14:49 | 25.05597 | 121.32267 | 4013 ft | 161 kts | 48° |
| 2026-04-20 14:50 | 25.06369 | 121.33170 | 3652 ft | 165 kts | 49° |
| 2026-04-20 14:50 | 25.07105 | 121.34181 | 3238 ft | 173 kts | 60° |
| 2026-04-20 14:50 | 25.07539 | 121.35404 | 3009 ft | 167 kts | 82° |
| 2026-04-20 14:50 | 25.07608 | 121.36609 | 2944 ft | 149 kts | 93° |
| 2026-04-20 14:51 | 25.07572 | 121.37727 | 2823 ft | 145 kts | 94° |
| 2026-04-20 14:51 | 25.07534 | 121.38805 | 2677 ft | 137 kts | 94° |
| 2026-04-20 14:51 | 25.07500 | 121.39834 | 2480 ft | 133 kts | 94° |
| 2026-04-20 14:51 | 25.07465 | 121.40859 | 2315 ft | 133 kts | 94° |
| 2026-04-20 14:52 | 25.07430 | 121.41886 | 2128 ft | 133 kts | 94° |
| 2026-04-20 14:52 | 25.07394 | 121.42910 | 1964 ft | 134 kts | 94° |
| 2026-04-20 14:52 | 25.07359 | 121.43918 | 1776 ft | 132 kts | 94° |
| 2026-04-20 14:52 | 25.07323 | 121.44935 | 1606 ft | 132 kts | 94° |
| 2026-04-20 14:53 | 25.07287 | 121.45948 | 1441 ft | 131 kts | 95° |
| 2026-04-20 14:53 | 25.07252 | 121.46942 | 1278 ft | 132 kts | 93° |
| 2026-04-20 14:53 | 25.07216 | 121.47949 | 1110 ft | 131 kts | 93° |
| 2026-04-20 14:53 | 25.07181 | 121.48955 | 953 ft | 131 kts | 93° |
| 2026-04-20 14:54 | 25.07138 | 121.49958 | 758 ft | 130 kts | 93° |
| 2026-04-20 14:54 | 25.07103 | 121.50960 | 602 ft | 130 kts | 91° |
| 2026-04-20 14:54 | 25.07071 | 121.51935 | 422 ft | 129 kts | 92° |
| 2026-04-20 14:54 | 25.07039 | 121.52917 | 231 ft | 127 kts | 92° |
| 2026-04-20 14:55 | 25.07007 | 121.53891 | 67 ft | 127 kts | 92° |
| 2026-04-20 14:55 | 25.06974 | 121.54813 | 29 ft | 106 kts | 92° |